Terminal Aerodrome Forecast
Issued by NWS Twin Cities, MN

Home | Current Version | Previous Version | Graphics & Text | Print | Product List | Glossary Off
Versions: 1 2 3 4 5 6 7 8 9 10 11 12 13 14 15 16 17 18 19 20 21 22 23 24 25 26 27 28 29

000
FTUS43 KMPX 211506 AAA
TAFMSP
TAF AMD
KMSP 211506Z 2115/2218 29018G27KT P6SM VCSH BKN035 OVC050
     FM220200 31013G20KT P6SM BKN050
     FM220800 32010KT P6SM SCT050
     FM221400 31015G23KT P6SM SCT250=

USA.gov is the U.S. government's official web portal to all federal, state and local government web resources and services.